< < Back
Terminal Aerodrome Forecast


Current Version              Previous Versions:   1  2  3  4  5  6  7  8  9  

Terminal Aerodrome Forecast

330
FTUS44 KMOB 301100
TAFPNS
TAF
KPNS 301131Z 3012/3112 02008G17KT P6SM OVC060
     FM301600 36008KT P6SM SKC
     FM310300 34005KT P6SM SKC=



Latest METAR

441
SAUS70 KWBC 301458
MTRPNS
METAR KPNS 301453Z 04011G19KT 10SM CLR 18/07 A3008 RMK AO2 SLP189
T01830067 51013


USA.gov is the U.S. government's official web portal to all federal, state and local government web resources and services.